Time;durP1;ratioP1;P1;durP2;ratioP2;P2;SDS_P1;SDS_P2;PMS_P1;PMS_P2;Temp;Humidity;BMP_temperature;BMP_pressure;BME280_temperature;BME280_humidity;BME280_pressure;Samples;Min_cycle;Max_cycle;Signal;HPM_P1;HPM_P2
2023/02/26 00:02:28;;;;;;;2.92;1.70;;;0.20;99.90;;;;;;5019693;28;20819;-80
2023/02/26 00:04:54;;;;;;;3.70;2.10;;;0.20;99.90;;;;;;5019762;28;20212;-80
2023/02/26 00:07:21;;;;;;;3.78;2.63;;;0.20;99.90;;;;;;5018985;28;20204;-83
2023/02/26 00:09:48;;;;;;;1.95;1.85;;;0.20;99.90;;;;;;5019169;28;20235;-82
2023/02/26 00:12:15;;;;;;;2.40;1.42;;;0.20;99.90;;;;;;5019105;28;20206;-82
2023/02/26 00:14:43;;;;;;;2.53;2.20;;;0.20;99.90;;;;;;5018960;28;20230;-82
2023/02/26 00:17:31;;;;;;;2.50;1.80;;;0.20;99.90;;;;;;5019070;28;20205;-81
2023/02/26 00:19:59;;;;;;;2.33;1.67;;;0.40;1.00;;;;;;5017899;28;20290;-81
2023/02/26 00:22:26;;;;;;;2.83;2.10;;;0.20;99.90;;;;;;5018079;28;20235;-81
2023/02/26 00:24:53;;;;;;;3.75;2.05;;;0.20;99.90;;;;;;5018402;28;20288;-82
2023/02/26 00:27:20;;;;;;;2.42;1.90;;;0.20;99.90;;;;;;5019404;28;20708;-81
2023/02/26 00:29:47;;;;;;;4.10;2.30;;;0.30;99.90;;;;;;5018938;28;20262;-81
2023/02/26 00:32:16;;;;;;;1.60;1.50;;;0.20;99.90;;;;;;5018701;28;20751;-81
2023/02/26 00:34:45;;;;;;;2.03;1.75;;;0.20;99.90;;;;;;5020535;28;20232;-81
2023/02/26 00:37:26;;;;;;;2.25;2.03;;;0.20;99.90;;;;;;5026880;28;20287;-81
2023/02/26 00:40:07;;;;;;;2.85;2.10;;;0.30;99.90;;;;;;5020342;28;20316;-82
2023/02/26 00:42:34;;;;;;;2.55;2.35;;;0.30;99.90;;;;;;5019103;28;20193;-84
2023/02/26 00:45:02;;;;;;;4.50;1.73;;;0.30;99.90;;;;;;5017740;28;20208;-82
2023/02/26 00:47:33;;;;;;;3.38;1.80;;;0.30;99.90;;;;;;5018076;28;20696;-82
2023/02/26 00:50:15;;;;;;;3.17;1.85;;;0.30;99.90;;;;;;5017927;28;20768;-83
2023/02/26 00:52:50;;;;;;;6.35;1.90;;;0.30;99.90;;;;;;5018543;28;20280;-80
2023/02/26 00:55:18;;;;;;;2.10;1.90;;;0.30;99.90;;;;;;5018548;28;20617;-83
2023/02/26 00:57:45;;;;;;;3.17;2.08;;;0.30;99.90;;;;;;5019181;28;20694;-83
2023/02/26 01:00:13;;;;;;;3.53;1.65;;;0.20;99.90;;;;;;5019031;28;20715;-82
2023/02/26 01:02:41;;;;;;;5.40;2.28;;;0.30;99.90;;;;;;5018806;28;20216;-82
2023/02/26 01:05:11;;;;;;;3.38;1.83;;;-0.30;99.90;;;;;;5022551;28;20558;-84
2023/02/26 01:07:44;;;;;;;2.30;1.50;;;0.40;99.90;;;;;;5023615;28;20249;-82
2023/02/26 01:10:13;;;;;;;3.33;1.90;;;0.40;99.90;;;;;;5024387;28;20239;-84
2023/02/26 01:12:41;;;;;;;4.32;1.70;;;0.40;99.90;;;;;;5026709;28;20236;-83
2023/02/26 01:15:09;;;;;;;2.10;1.90;;;0.40;99.90;;;;;;5025556;28;20256;-82
2023/02/26 01:17:43;;;;;;;1.70;1.60;;;0.40;99.90;;;;;;5023686;28;20295;-83
2023/02/26 01:20:17;;;;;;;2.58;1.50;;;0.40;99.90;;;;;;5022396;28;20307;-83
2023/02/26 01:22:50;;;;;;;4.82;1.75;;;0.40;99.90;;;;;;5022701;28;20217;-82
2023/02/26 01:25:23;;;;;;;2.97;2.30;;;0.40;99.90;;;;;;5033889;28;20185;-81
2023/02/26 01:27:50;;;;;;;3.75;1.50;;;0.20;99.90;;;;;;5039204;28;20219;-82
2023/02/26 01:30:18;;;;;;;3.92;1.67;;;0.30;99.90;;;;;;5032376;28;20319;-81
2023/02/26 01:32:50;;;;;;;1.50;1.40;;;0.60;99.90;;;;;;5026050;28;20200;-82
2023/02/26 01:35:30;;;;;;;2.60;1.80;;;0.50;99.90;;;;;;5023578;28;20195;-83
2023/02/26 01:38:01;;;;;;;2.20;1.60;;;0.50;99.90;;;;;;5022783;28;20189;-81
2023/02/26 01:40:42;;;;;;;2.25;1.10;;;-0.30;99.90;;;;;;5022775;28;20185;-83
2023/02/26 01:43:15;;;;;;;6.30;1.38;;;0.50;99.90;;;;;;5029000;28;20216;-79
2023/02/26 01:45:55;;;;;;;1.45;1.35;;;0.50;99.90;;;;;;5027643;28;20220;-81
2023/02/26 01:48:36;;;;;;;1.52;1.33;;;0.50;99.90;;;;;;5026604;28;20259;-82
2023/02/26 01:51:05;;;;;;;1.10;1.00;;;0.50;99.90;;;;;;5021109;28;20192;-82
2023/02/26 01:53:32;;;;;;;5.70;3.40;;;0.40;99.90;;;;;;5021752;28;20243;-81
2023/02/26 01:56:02;;;;;;;2.35;1.50;;;0.50;99.90;;;;;;5027090;28;20211;-81
2023/02/26 01:58:33;;;;;;;3.38;1.40;;;0.50;99.90;;;;;;5023230;28;20292;-81
2023/02/26 02:01:01;;;;;;;2.08;1.85;;;0.50;99.90;;;;;;5022275;28;20664;-81
2023/02/26 02:03:30;;;;;;;2.08;1.30;;;0.50;99.90;;;;;;5022266;28;20582;-80
2023/02/26 02:06:01;;;;;;;6.30;1.70;;;0.50;99.90;;;;;;5024014;28;20204;-82
2023/02/26 02:08:28;;;;;;;3.33;2.15;;;;;;;;;;5032796;22;20662;31
2023/02/26 02:10:56;;;;;;;1.42;1.30;;;0.60;93.40;;;;;;4983301;28;20218;-82
2023/02/26 02:13:36;;;;;;;1.35;1.20;;;0.50;76.30;;;;;;4991346;28;20768;-82
2023/02/26 02:16:14;;;;;;;2.13;1.40;;;0.50;42.30;;;;;;4988756;28;20190;-82
2023/02/26 02:18:51;;;;;;;1.58;1.48;;;0.50;19.20;;;;;;4988314;28;20261;-83
2023/02/26 02:21:44;;;;;;;1.50;1.08;;;0.60;38.40;;;;;;4987260;28;20225;-83
2023/02/26 02:24:14;;;;;;;5.50;1.65;;;0.60;15.10;;;;;;4986532;28;20202;-82
2023/02/26 02:27:03;;;;;;;5.28;1.30;;;0.60;6.90;;;;;;4984738;28;20210;-82
2023/02/26 02:30:09;;;;;;;2.08;1.77;;;0.60;1.00;;;;;;4985427;28;20748;-83
2023/02/26 02:32:40;;;;;;;2.42;1.73;;;0.60;1.00;;;;;;4983905;28;20200;-83
2023/02/26 02:35:15;;;;;;;2.58;1.60;;;0.70;1.00;;;;;;4979054;28;20192;-83
2023/02/26 02:37:46;;;;;;;2.78;2.33;;;0.70;1.00;;;;;;4994244;28;20221;-82
2023/02/26 02:40:18;;;;;;;4.20;1.90;;;0.60;1.00;;;;;;4998546;28;20222;-82
2023/02/26 02:42:49;;;;;;;2.50;2.30;;;0.60;1.00;;;;;;4992223;28;20182;-82
2023/02/26 02:45:20;;;;;;;2.17;1.15;;;0.60;1.00;;;;;;4994070;28;20240;-81
2023/02/26 02:47:53;;;;;;;4.15;1.83;;;0.70;1.00;;;;;;4985042;28;20300;-82
2023/02/26 02:50:27;;;;;;;1.80;1.50;;;0.70;1.00;;;;;;4984474;28;20230;-83
2023/02/26 02:52:58;;;;;;;1.50;1.40;;;0.60;1.00;;;;;;4983297;28;20278;-82
2023/02/26 02:55:29;;;;;;;2.08;1.85;;;0.70;31.70;;;;;;4988541;28;20311;-82
2023/02/26 02:58:01;;;;;;;1.25;1.15;;;0.60;1.00;;;;;;5000712;28;20198;-82
2023/02/26 03:00:32;;;;;;;1.33;1.23;;;0.60;1.00;;;;;;5000337;28;20233;-82
2023/02/26 03:03:07;;;;;;;3.25;1.42;;;0.40;13.30;;;;;;5000045;28;20218;-82
2023/02/26 03:05:34;;;;;;;1.40;1.30;;;0.50;1.00;;;;;;4997868;28;20186;-81
2023/02/26 03:08:06;;;;;;;4.53;1.50;;;0.50;1.00;;;;;;4983363;28;20248;-82
2023/02/26 03:10:34;;;;;;;3.38;1.40;;;0.50;1.00;;;;;;4979662;28;20317;-83
2023/02/26 03:13:00;;;;;;;1.60;1.50;;;0.50;1.00;;;;;;4980373;28;20301;-83
2023/02/26 03:15:43;;;;;;;1.60;1.50;;;0.50;1.00;;;;;;4981084;28;20274;-82
2023/02/26 03:18:23;;;;;;;4.30;1.80;;;0.50;1.00;;;;;;4982168;28;20277;-82
2023/02/26 03:21:02;;;;;;;1.20;1.20;;;0.50;1.00;;;;;;4980852;28;20195;-82
2023/02/26 03:23:35;;;;;;;1.48;1.30;;;0.50;1.00;;;;;;4980937;28;20416;-81
2023/02/26 03:26:12;;;;;;;2.47;1.58;;;0.50;1.00;;;;;;4981029;28;20200;-82
2023/02/26 03:28:47;;;;;;;2.85;1.10;;;0.50;1.00;;;;;;4979524;28;20228;-82
2023/02/26 03:31:20;;;;;;;5.07;1.60;;;0.30;58.40;;;;;;4981190;28;20218;-83
2023/02/26 03:33:54;;;;;;;2.35;1.13;;;0.50;1.00;;;;;;4985935;28;20194;-82
2023/02/26 03:36:25;;;;;;;3.55;2.65;;;0.40;1.00;;;;;;4999372;28;20184;-82
2023/02/26 03:38:57;;;;;;;2.92;1.40;;;0.50;1.00;;;;;;4982225;28;20232;-82
2023/02/26 03:41:30;;;;;;;6.30;1.55;;;0.50;1.00;;;;;;4978219;28;20194;-82
2023/02/26 03:44:01;;;;;;;4.07;1.50;;;3.00;1.00;;;;;;4978801;28;20194;-82
2023/02/26 03:46:34;;;;;;;1.92;1.73;;;0.50;1.00;;;;;;4980662;28;20258;-82
2023/02/26 03:49:07;;;;;;;1.63;1.52;;;0.50;26.50;;;;;;4980154;28;20226;-82
2023/02/26 03:51:35;;;;;;;1.27;1.17;;;0.50;1.00;;;;;;4979858;28;20195;-83
2023/02/26 03:54:06;;;;;;;4.85;2.35;;;0.50;1.00;;;;;;4980899;28;20645;-82
2023/02/26 03:56:37;;;;;;;1.42;1.30;;;0.50;1.00;;;;;;4979743;28;20194;-82
2023/02/26 03:59:04;;;;;;;2.58;2.05;;;0.50;1.00;;;;;;4981592;28;20226;-82
2023/02/26 04:01:35;;;;;;;3.33;1.45;;;0.50;1.00;;;;;;4992364;28;20229;-82
2023/02/26 04:04:09;;;;;;;2.97;1.30;;;0.50;1.00;;;;;;4993562;28;20281;-82
2023/02/26 04:06:36;;;;;;;2.25;1.30;;;0.50;1.00;;;;;;4992230;28;20206;-83
2023/02/26 04:09:04;;;;;;;1.52;1.42;;;0.50;1.00;;;;;;4980891;28;20236;-83
2023/02/26 04:11:32;;;;;;;1.70;1.20;;;0.50;1.00;;;;;;4980891;28;20285;-81
2023/02/26 04:13:59;;;;;;;1.63;1.50;;;0.50;1.00;;;;;;4980779;28;20214;-81
2023/02/26 04:16:26;;;;;;;3.13;1.55;;;0.80;62.50;;;;;;4980380;28;20210;-82
2023/02/26 04:18:53;;;;;;;4.53;1.50;;;0.60;57.90;;;;;;4980114;28;20226;-82
2023/02/26 04:21:22;;;;;;;1.40;1.30;;;0.50;1.00;;;;;;4980994;28;20567;-82
2023/02/26 04:23:49;;;;;;;4.10;1.20;;;0.50;1.00;;;;;;4982620;28;20236;-82
2023/02/26 04:26:16;;;;;;;1.58;1.48;;;0.50;1.00;;;;;;4980922;28;20204;-82
2023/02/26 04:28:43;;;;;;;3.65;1.70;;;0.50;1.00;;;;;;4980487;28;20231;-83
2023/02/26 04:31:10;;;;;;;2.58;1.60;;;0.60;1.00;;;;;;4980220;28;20768;-82
2023/02/26 04:33:37;;;;;;;4.22;1.80;;;0.60;1.00;;;;;;4980724;28;20206;-82
2023/02/26 04:36:04;;;;;;;3.17;1.40;;;0.60;1.00;;;;;;4980685;28;20223;-82
2023/02/26 04:38:32;;;;;;;3.88;1.60;;;0.90;1.00;;;;;;4981167;28;20213;-82
2023/02/26 04:40:59;;;;;;;1.40;1.30;;;0.60;1.00;;;;;;4983951;28;20207;-82
2023/02/26 04:43:26;;;;;;;1.95;1.40;;;0.60;1.00;;;;;;4983556;28;20300;-82
2023/02/26 04:45:54;;;;;;;8.13;1.98;;;0.60;1.00;;;;;;4983452;28;20265;-82
2023/02/26 04:48:21;;;;;;;1.45;1.35;;;0.80;1.00;;;;;;4983918;28;20261;-82
2023/02/26 04:50:48;;;;;;;1.50;1.40;;;0.60;1.00;;;;;;4983372;28;20222;-82
2023/02/26 04:53:15;;;;;;;4.35;1.58;;;0.60;1.00;;;;;;4987802;28;20226;-82
2023/02/26 04:55:43;;;;;;;3.50;1.23;;;0.70;1.00;;;;;;4994330;28;20271;-82
2023/02/26 04:58:10;;;;;;;1.73;1.27;;;0.70;1.00;;;;;;4995060;28;20202;-82
2023/02/26 05:00:37;;;;;;;2.65;1.40;;;0.70;1.00;;;;;;4990567;28;20294;-82
2023/02/26 05:03:04;;;;;;;2.67;1.30;;;0.60;1.00;;;;;;4989126;28;20206;-82
2023/02/26 05:05:31;;;;;;;1.40;1.30;;;0.70;1.00;;;;;;4988736;28;20213;-82
2023/02/26 05:07:58;;;;;;;4.60;2.00;;;0.60;1.00;;;;;;4988700;28;20244;-82
2023/02/26 05:10:25;;;;;;;6.20;1.65;;;0.50;1.00;;;;;;4991691;28;20221;-82
2023/02/26 05:12:53;;;;;;;1.13;1.02;;;0.70;1.00;;;;;;5001058;28;20190;-81
2023/02/26 05:15:20;;;;;;;1.48;1.15;;;0.70;1.00;;;;;;5001561;28;20253;-81
2023/02/26 05:17:47;;;;;;;1.80;1.38;;;0.70;1.00;;;;;;4994688;28;20274;-82
2023/02/26 05:20:14;;;;;;;2.35;1.13;;;0.70;1.00;;;;;;4992575;28;20289;-82
2023/02/26 05:22:41;;;;;;;2.50;1.80;;;0.40;1.00;;;;;;4991508;28;20213;-82
2023/02/26 05:25:09;;;;;;;1.40;1.30;;;0.70;1.00;;;;;;4987381;28;20303;-81
2023/02/26 05:27:36;;;;;;;1.52;1.42;;;0.70;1.00;;;;;;4986297;28;20645;-81
2023/02/26 05:30:05;;;;;;;2.00;1.42;;;0.70;1.00;;;;;;4986160;28;20257;-81
2023/02/26 05:32:32;;;;;;;1.85;1.52;;;0.70;1.00;;;;;;4990229;28;20217;-81
2023/02/26 05:34:59;;;;;;;2.08;1.42;;;0.70;99.90;;;;;;4983295;28;20214;-82
2023/02/26 05:37:26;;;;;;;1.38;1.27;;;0.70;99.90;;;;;;4982638;28;20234;-82
2023/02/26 05:39:53;;;;;;;3.28;1.55;;;0.70;99.90;;;;;;4983127;28;20226;-82
2023/02/26 05:42:19;;;;;;;3.92;1.50;;;0.70;99.90;;;;;;4983317;28;20220;-83
2023/02/26 05:44:46;;;;;;;1.60;1.45;;;0.60;99.90;;;;;;4982540;28;20537;-83
2023/02/26 05:47:15;;;;;;;12.63;5.28;;;0.80;1.00;;;;;;4984011;28;20273;-82
2023/02/26 05:49:41;;;;;;;6.03;3.20;;;0.80;1.00;;;;;;4982170;28;20236;-83
2023/02/26 05:52:08;;;;;;;2.65;1.45;;;0.80;1.00;;;;;;4982453;28;20213;-83
2023/02/26 05:54:35;;;;;;;3.50;1.15;;;0.60;1.00;;;;;;4982731;28;20296;-82
2023/02/26 05:57:02;;;;;;;2.15;1.45;;;0.80;99.90;;;;;;4989407;28;20277;-82
2023/02/26 05:59:29;;;;;;;1.10;1.00;;;0.80;99.90;;;;;;4995025;28;20253;-82
2023/02/26 06:01:56;;;;;;;2.13;1.30;;;0.80;99.90;;;;;;4985795;28;20636;-82
2023/02/26 06:04:24;;;;;;;9.85;1.17;;;0.80;99.90;;;;;;4983374;28;20233;-82
2023/02/26 06:06:51;;;;;;;2.35;1.15;;;1.00;99.90;;;;;;4982668;28;20212;-82
2023/02/26 06:09:18;;;;;;;1.90;1.10;;;0.80;99.90;;;;;;4983250;28;20301;-83
2023/02/26 06:11:45;;;;;;;2.05;1.42;;;0.70;99.90;;;;;;4989881;28;20278;-83
2023/02/26 06:14:11;;;;;;;5.75;1.45;;;0.90;99.90;;;;;;5001095;28;20293;-82
2023/02/26 06:16:38;;;;;;;3.72;1.25;;;0.80;99.90;;;;;;5000318;28;20236;-82
2023/02/26 06:19:05;;;;;;;7.63;1.65;;;0.80;99.90;;;;;;4997649;28;20253;-82
2023/02/26 06:21:33;;;;;;;2.30;1.20;;;1.00;99.90;;;;;;4994412;28;20248;-82
2023/02/26 06:24:00;;;;;;;1.60;1.30;;;0.80;99.90;;;;;;4987450;28;20210;-82
2023/02/26 06:26:27;;;;;;;1.80;1.15;;;0.70;99.90;;;;;;4984313;28;20749;-82
2023/02/26 06:28:54;;;;;;;1.65;1.30;;;0.50;99.90;;;;;;4984477;28;20226;-83
2023/02/26 06:31:20;;;;;;;1.55;1.38;;;0.80;99.90;;;;;;4984423;28;20228;-82
2023/02/26 06:33:47;;;;;;;2.60;1.20;;;0.80;99.90;;;;;;4987972;28;20563;-82
2023/02/26 06:36:14;;;;;;;3.55;1.40;;;0.80;99.90;;;;;;4983485;28;20265;-83
2023/02/26 06:38:44;;;;;;;1.50;1.40;;;0.90;99.90;;;;;;4983621;28;20225;-83
2023/02/26 06:41:11;;;;;;;5.40;1.80;;;0.50;99.90;;;;;;4982594;28;20267;-82
2023/02/26 06:43:38;;;;;;;1.20;1.10;;;0.80;99.90;;;;;;4987243;28;20277;-82
2023/02/26 06:46:05;;;;;;;5.20;1.63;;;1.00;99.90;;;;;;5000368;28;20202;-82
2023/02/26 06:48:32;;;;;;;1.52;1.42;;;0.80;99.90;;;;;;4988575;28;20225;-82
2023/02/26 06:50:59;;;;;;;1.50;1.35;;;0.80;99.90;;;;;;4979895;28;20226;-82
2023/02/26 06:53:25;;;;;;;1.45;1.05;;;0.60;99.90;;;;;;4982593;28;20277;-83
2023/02/26 06:55:55;;;;;;;3.17;2.70;;;0.90;67.30;;;;;;4981207;28;20210;-83
2023/02/26 06:58:22;;;;;;;3.97;1.70;;;1.10;99.90;;;;;;4981796;28;20289;-82
2023/02/26 07:00:49;;;;;;;1.63;1.52;;;0.90;99.90;;;;;;4981253;28;20270;-82
2023/02/26 07:03:18;;;;;;;2.25;1.30;;;1.00;27.90;;;;;;4988120;28;20213;-82
2023/02/26 07:05:45;;;;;;;2.15;1.65;;;0.90;99.90;;;;;;4992997;28;20233;-82
2023/02/26 07:08:13;;;;;;;1.00;1.00;;;0.90;99.90;;;;;;4987332;28;20240;-83
2023/02/26 07:10:41;;;;;;;1.20;1.08;;;1.00;99.90;;;;;;4981734;28;20241;-82
2023/02/26 07:13:09;;;;;;;1.48;1.38;;;1.00;99.90;;;;;;4981626;28;20265;-82
2023/02/26 07:15:36;;;;;;;6.18;1.50;;;1.10;99.90;;;;;;4981270;28;20689;-82
2023/02/26 07:18:03;;;;;;;1.90;1.30;;;1.10;99.90;;;;;;4981638;28;20296;-83
2023/02/26 07:20:30;;;;;;;2.17;1.30;;;1.10;95.50;;;;;;4981002;28;20720;-83
2023/02/26 07:22:57;;;;;;;1.20;1.10;;;1.10;37.20;;;;;;4996647;28;20200;-83
2023/02/26 07:25:24;;;;;;;1.25;1.15;;;0.90;99.90;;;;;;5000107;28;20190;-83
2023/02/26 07:27:51;;;;;;;1.30;1.20;;;0.90;99.90;;;;;;5000153;28;20189;-83
2023/02/26 07:30:19;;;;;;;1.30;0.80;;;1.20;40.10;;;;;;4981066;28;20290;-83
2023/02/26 07:32:46;;;;;;;5.68;2.20;;;1.30;1.00;;;;;;4976902;28;20210;-83
2023/02/26 07:35:13;;;;;;;1.75;1.55;;;1.30;1.00;;;;;;4979609;28;20210;-82
2023/02/26 07:37:40;;;;;;;1.70;1.58;;;1.30;1.00;;;;;;4983311;28;20202;-82
2023/02/26 07:40:08;;;;;;;2.65;2.45;;;1.20;1.00;;;;;;4985849;28;20226;-82
2023/02/26 07:42:35;;;;;;;2.67;1.83;;;1.20;1.00;;;;;;4988349;28;20238;-83
2023/02/26 07:45:02;;;;;;;1.77;1.15;;;1.30;1.00;;;;;;4988307;28;20236;-83
2023/02/26 07:47:30;;;;;;;1.80;1.55;;;1.10;1.00;;;;;;4989788;28;20232;-82
2023/02/26 07:49:57;;;;;;;2.13;1.30;;;1.10;1.00;;;;;;4986478;28;20226;-82
2023/02/26 07:52:24;;;;;;;2.78;1.80;;;1.20;32.90;;;;;;4986007;28;20255;-82
2023/02/26 07:54:51;;;;;;;1.65;1.40;;;1.10;24.80;;;;;;4986632;28;20241;-82
2023/02/26 07:57:18;;;;;;;1.60;1.50;;;0.90;99.90;;;;;;4987314;28;20236;-83
2023/02/26 07:59:45;;;;;;;3.70;1.70;;;1.20;44.20;;;;;;4984695;28;20309;-83
2023/02/26 08:02:12;;;;;;;1.90;1.80;;;1.20;19.30;;;;;;4982071;28;20205;-83
2023/02/26 08:04:41;;;;;;;4.07;1.55;;;1.20;99.90;;;;;;4983995;28;20237;-83
2023/02/26 08:07:09;;;;;;;2.80;1.35;;;1.20;1.00;;;;;;4987285;28;20673;-83
2023/02/26 08:09:36;;;;;;;1.90;1.23;;;1.20;15.20;;;;;;5039041;22;20318;-81
2023/02/26 08:12:03;;;;;;;2.53;1.95;;;1.20;1.00;;;;;;5097708;28;20225;-81
2023/02/26 08:14:30;;;;;;;2.83;2.55;;;1.30;24.00;;;;;;5098225;28;20202;-83
2023/02/26 08:16:57;;;;;;;3.25;1.30;;;1.30;44.50;;;;;;5098202;28;20200;-83
2023/02/26 08:19:23;;;;;;;1.83;1.63;;;1.40;11.20;;;;;;5096635;28;20222;-82
2023/02/26 08:21:54;;;;;;;2.60;1.45;;;1.10;99.90;;;;;;5097420;28;20213;-81
2023/02/26 08:24:20;;;;;;;2.95;1.75;;;1.30;48.20;;;;;;5097811;28;20194;-82
2023/02/26 08:26:47;;;;;;;1.00;1.00;;;1.30;93.20;;;;;;5097920;28;20204;-82
2023/02/26 08:29:14;;;;;;;2.15;1.38;;;1.30;1.00;;;;;;5097660;28;20222;-83
2023/02/26 08:31:41;;;;;;;5.35;1.60;;;1.30;1.00;;;;;;5112529;28;20281;-80
2023/02/26 08:34:08;;;;;;;3.35;1.80;;;1.30;1.00;;;;;;5115872;28;20190;-82
2023/02/26 08:36:35;;;;;;;3.65;1.73;;;1.40;1.00;;;;;;5112277;28;20213;-80
2023/02/26 08:39:03;;;;;;;2.97;1.30;;;1.50;32.70;;;;;;5114519;28;20225;-82
2023/02/26 08:41:31;;;;;;;2.15;1.40;;;1.50;1.00;;;;;;5105459;28;20270;-83
2023/02/26 08:43:58;;;;;;;4.20;1.48;;;1.60;1.00;;;;;;5104586;28;20205;-80
2023/02/26 08:46:25;;;;;;;2.55;2.35;;;1.80;1.00;;;;;;5102425;28;20296;-82
2023/02/26 08:48:52;;;;;;;1.65;1.52;;;1.90;1.00;;;;;;5098898;28;20202;-81
2023/02/26 08:51:19;;;;;;;1.88;1.08;;;1.60;1.00;;;;;;5103255;28;20244;-82
2023/02/26 08:53:46;;;;;;;4.40;1.88;;;1.70;1.00;;;;;;5098372;28;20201;-82
2023/02/26 08:56:14;;;;;;;2.63;1.60;;;1.70;1.00;;;;;;5099136;28;20293;-82
2023/02/26 08:58:41;;;;;;;1.88;1.27;;;1.70;1.00;;;;;;5098612;28;20236;-82
2023/02/26 09:01:08;;;;;;;2.20;2.00;;;1.70;1.00;;;;;;5098108;28;20263;-82
2023/02/26 09:03:35;;;;;;;3.08;1.70;;;1.70;1.00;;;;;;5096349;28;20385;-82
2023/02/26 09:06:03;;;;;;;1.35;1.25;;;1.80;99.90;;;;;;5095580;28;20206;-82
2023/02/26 09:08:32;;;;;;;1.42;1.17;;;1.70;99.90;;;;;;5096027;28;20358;-84
2023/02/26 09:11:00;;;;;;;1.38;1.20;;;1.80;1.00;;;;;;5095868;28;20286;-82
2023/02/26 09:13:28;;;;;;;1.40;1.30;;;2.10;1.00;;;;;;5098501;28;20238;-83
2023/02/26 09:15:56;;;;;;;3.15;1.70;;;1.80;99.90;;;;;;5100519;28;20202;-83
2023/02/26 09:18:22;;;;;;;2.70;1.92;;;1.60;1.00;;;;;;5100886;28;20202;-82
2023/02/26 09:20:49;;;;;;;1.70;1.60;;;1.90;99.90;;;;;;5097546;28;20254;-82
2023/02/26 09:23:16;;;;;;;3.70;1.42;;;2.00;99.90;;;;;;5096916;28;20248;-82
2023/02/26 09:25:43;;;;;;;2.25;1.63;;;2.00;99.90;;;;;;5099273;28;20299;-83
2023/02/26 09:28:10;;;;;;;4.20;1.10;;;2.10;99.90;;;;;;5098936;28;20780;-83
2023/02/26 09:30:38;;;;;;;2.75;1.42;;;2.20;99.90;;;;;;5100430;28;20667;-82
2023/02/26 09:33:05;;;;;;;1.75;1.33;;;2.30;99.90;;;;;;5100969;28;20654;-82
2023/02/26 09:35:32;;;;;;;1.63;1.10;;;2.30;99.90;;;;;;5101345;28;20194;-81
2023/02/26 09:37:59;;;;;;;1.77;1.67;;;2.40;99.90;;;;;;5102714;28;20293;-83
2023/02/26 09:40:38;;;;;;;1.98;0.90;;;2.30;1.00;;;;;;5104913;28;20300;-80
2023/02/26 09:43:23;;;;;;;3.97;1.50;;;2.30;1.00;;;;;;5103526;28;20560;-82
2023/02/26 09:45:53;;;;;;;1.23;1.17;;;2.30;1.00;;;;;;5101400;28;20254;-82
2023/02/26 09:48:23;;;;;;;2.97;1.50;;;2.20;99.90;;;;;;5100234;28;20202;-81
2023/02/26 09:50:52;;;;;;;1.27;1.15;;;2.20;1.00;;;;;;5099570;28;20222;-81
2023/02/26 09:53:24;;;;;;;4.32;1.85;;;2.40;1.00;;;;;;5099858;28;20201;-83
2023/02/26 09:55:54;;;;;;;4.50;1.92;;;2.20;1.00;;;;;;5100622;28;20190;-83
2023/02/26 09:58:26;;;;;;;4.30;2.15;;;2.30;1.00;;;;;;5099961;28;20187;-83
2023/02/26 10:01:01;;;;;;;1.70;1.60;;;2.50;99.90;;;;;;5099888;28;20225;-82
2023/02/26 10:03:34;;;;;;;2.45;1.80;;;2.60;1.00;;;;;;5101393;28;20277;-82
2023/02/26 10:06:18;;;;;;;4.80;1.65;;;2.70;1.00;;;;;;5102157;28;20370;-82
2023/02/26 10:08:58;;;;;;;3.75;1.27;;;2.80;63.60;;;;;;5104852;28;20269;-83
2023/02/26 10:11:31;;;;;;;1.20;1.10;;;2.80;99.90;;;;;;5103907;28;20579;-80
2023/02/26 10:14:03;;;;;;;1.95;1.60;;;2.80;99.90;;;;;;5103407;28;20198;-82
2023/02/26 10:16:38;;;;;;;3.40;1.15;;;2.50;99.90;;;;;;5101060;28;20287;-83
2023/02/26 10:19:08;;;;;;;3.25;2.08;;;1.90;99.90;;;;;;5099747;28;20216;-82
2023/02/26 10:21:40;;;;;;;1.58;1.40;;;2.50;99.90;;;;;;5100622;28;20189;-84
2023/02/26 10:24:13;;;;;;;2.08;1.48;;;2.40;96.40;;;;;;5099881;28;20193;-82
2023/02/26 10:26:44;;;;;;;0.90;0.90;;;2.50;93.50;;;;;;5103670;28;20191;-83
2023/02/26 10:29:21;;;;;;;1.48;1.20;;;2.60;1.00;;;;;;5105022;28;20232;-83
2023/02/26 10:31:59;;;;;;;1.88;1.60;;;2.60;12.60;;;;;;5105088;28;20244;-83
2023/02/26 10:34:31;;;;;;;1.80;1.35;;;2.50;7.90;;;;;;5102427;28;20218;-84
2023/02/26 10:37:08;;;;;;;2.33;1.65;;;2.40;1.00;;;;;;5099978;28;20196;-83
2023/02/26 10:39:44;;;;;;;3.20;1.77;;;2.50;1.00;;;;;;5112133;28;20213;-83
2023/02/26 10:42:17;;;;;;;1.20;1.10;;;2.60;1.00;;;;;;5119760;28;20203;-84
2023/02/26 10:44:50;;;;;;;1.70;1.60;;;2.70;1.00;;;;;;5118521;28;20250;-83
2023/02/26 10:47:37;;;;;;;6.65;1.95;;;2.70;1.00;;;;;;5112756;28;20182;-82
2023/02/26 10:50:06;;;;;;;2.58;1.95;;;2.80;1.00;;;;;;5105010;28;20222;-83
2023/02/26 10:52:36;;;;;;;2.58;1.67;;;2.90;99.90;;;;;;5104481;28;20286;-82
2023/02/26 10:55:15;;;;;;;1.80;1.25;;;2.90;1.00;;;;;;5103317;28;20209;-83
2023/02/26 10:57:47;;;;;;;4.93;1.30;;;3.00;1.00;;;;;;5102854;28;20253;-82
2023/02/26 11:00:18;;;;;;;2.45;1.33;;;3.10;1.00;;;;;;5107882;28;20228;-83
2023/02/26 11:02:48;;;;;;;1.70;1.35;;;3.10;1.00;;;;;;5107633;28;20286;-82
2023/02/26 11:05:17;;;;;;;3.70;1.00;;;3.20;1.00;;;;;;5104193;28;20448;-84
2023/02/26 11:07:47;;;;;;;1.40;1.30;;;3.10;1.00;;;;;;5104902;28;20231;-81
2023/02/26 11:10:18;;;;;;;1.35;1.15;;;3.10;1.00;;;;;;5106361;28;20297;-83
2023/02/26 11:12:46;;;;;;;2.13;1.42;;;2.90;1.00;;;;;;5103289;28;20202;-83
2023/02/26 11:15:16;;;;;;;2.70;1.35;;;3.40;1.00;;;;;;5101983;28;20249;-81
2023/02/26 11:17:45;;;;;;;1.20;1.10;;;3.10;1.00;;;;;;5104264;28;20216;-81
2023/02/26 11:20:23;;;;;;;2.97;1.20;;;3.70;1.00;;;;;;5104890;28;20253;-83
2023/02/26 11:22:55;;;;;;;1.38;1.10;;;3.40;1.00;;;;;;5100983;28;20710;-83
2023/02/26 11:25:25;;;;;;;1.38;1.27;;;3.30;72.40;;;;;;5101502;28;20193;-82
2023/02/26 11:27:59;;;;;;;1.83;1.40;;;3.50;1.00;;;;;;5100532;28;20236;-83
2023/02/26 11:30:29;;;;;;;1.75;1.13;;;3.50;1.00;;;;;;5100341;28;20253;-81
2023/02/26 11:32:59;;;;;;;2.38;1.40;;;3.40;1.00;;;;;;5114201;28;20255;-83
2023/02/26 11:35:27;;;;;;;2.05;1.33;;;3.30;1.00;;;;;;5112398;28;20210;-82
2023/02/26 11:37:58;;;;;;;3.20;1.10;;;3.30;1.00;;;;;;5101241;28;20206;-82
2023/02/26 11:40:35;;;;;;;2.60;1.33;;;3.40;1.00;;;;;;5101069;28;20229;-84
2023/02/26 11:43:09;;;;;;;3.80;0.90;;;3.20;51.60;;;;;;5110776;28;20433;-83
2023/02/26 11:45:39;;;;;;;2.78;2.10;;;3.40;1.00;;;;;;5105541;28;20175;-81
2023/02/26 11:48:10;;;;;;;2.47;2.00;;;3.70;61.50;;;;;;5102873;28;20289;-82
2023/02/26 11:50:43;;;;;;;2.28;1.30;;;3.40;1.00;;;;;;5101895;28;20218;-83
2023/02/26 11:53:17;;;;;;;4.07;1.77;;;3.50;1.00;;;;;;5101187;28;20273;-82
2023/02/26 11:55:46;;;;;;;1.77;1.30;;;3.40;1.00;;;;;;5098632;28;20212;-82
2023/02/26 11:58:18;;;;;;;0.93;0.93;;;3.30;1.00;;;;;;5101019;28;20202;-81
2023/02/26 12:00:47;;;;;;;1.60;1.50;;;3.50;1.00;;;;;;5098934;28;20215;-82
2023/02/26 12:03:17;;;;;;;3.65;1.08;;;3.70;1.00;;;;;;5100069;28;20202;-82
2023/02/26 12:05:46;;;;;;;1.38;1.27;;;3.30;1.00;;;;;;5098077;28;20185;-82
2023/02/26 12:08:19;;;;;;;1.80;1.67;;;3.50;1.00;;;;;;5098662;28;20331;-83
2023/02/26 12:11:00;;;;;;;1.33;1.23;;;3.60;6.90;;;;;;5098967;28;20256;-82
2023/02/26 12:13:35;;;;;;;2.47;1.50;;;3.50;1.00;;;;;;5114008;28;20213;-83
2023/02/26 12:16:13;;;;;;;1.48;1.38;;;3.60;1.00;;;;;;5115321;28;20449;-82
2023/02/26 12:18:54;;;;;;;2.78;1.95;;;3.60;1.00;;;;;;5116438;28;20186;-82
2023/02/26 12:21:41;;;;;;;1.80;1.33;;;3.50;1.00;;;;;;5116900;28;20190;-82
2023/02/26 12:24:38;;;;;;;2.97;1.05;;;3.60;1.00;;;;;;5099650;28;20190;-82
2023/02/26 12:27:15;;;;;;;3.45;1.48;;;3.40;1.90;;;;;;5099128;28;20199;-82
2023/02/26 12:30:07;;;;;;;2.22;1.25;;;3.60;6.10;;;;;;5099788;28;20218;-85
2023/02/26 12:32:57;;;;;;;4.28;1.48;;;3.40;29.80;;;;;;5097027;28;20650;-84
2023/02/26 12:36:04;;;;;;;2.88;1.70;;;3.50;24.70;;;;;;5098503;28;20266;-81
2023/02/26 12:38:41;;;;;;;3.25;3.00;;;5.20;1.00;;;;;;5098900;28;20213;-85
2023/02/26 12:41:26;;;;;;;1.52;1.42;;;3.70;16.00;;;;;;5100292;28;20286;-83
2023/02/26 12:43:55;;;;;;;3.53;1.58;;;3.90;1.00;;;;;;5102631;28;20202;-82
2023/02/26 12:46:41;;;;;;;1.90;1.10;;;3.80;21.50;;;;;;5104806;28;20673;-83
2023/02/26 12:49:30;;;;;;;4.13;1.60;;;3.70;1.00;;;;;;5102496;28;20654;-82
2023/02/26 12:52:33;;;;;;;5.65;2.42;;;3.50;1.00;;;;;;5101594;28;20633;-82
2023/02/26 12:55:14;;;;;;;2.40;1.77;;;3.40;1.00;;;;;;5102399;28;20207;-83
2023/02/26 12:57:57;;;;;;;1.67;1.58;;;3.30;1.00;;;;;;5101397;28;20269;-82
2023/02/26 13:00:41;;;;;;;3.20;2.17;;;3.40;1.00;;;;;;5103829;28;20229;-84
2023/02/26 13:03:37;;;;;;;2.45;1.30;;;3.80;1.00;;;;;;5107882;28;20568;-81
2023/02/26 13:06:45;;;;;;;1.50;1.40;;;3.90;1.00;;;;;;5108785;28;20206;-81
2023/02/26 13:09:24;;;;;;;1.50;1.15;;;3.80;1.00;;;;;;5023676;28;20237;-82
2023/02/26 13:12:05;;;;;;;2.17;1.50;;;3.40;1.00;;;;;;5024166;28;20280;-81
2023/02/26 13:14:44;;;;;;;1.73;1.52;;;3.50;1.00;;;;;;5081613;28;20232;-81
2023/02/26 13:17:21;;;;;;;2.75;1.27;;;3.40;1.00;;;;;;5113452;28;20193;-81
2023/02/26 13:19:50;;;;;;;1.90;1.77;;;3.40;1.00;;;;;;5106235;28;20285;-81
2023/02/26 13:22:22;;;;;;;1.30;1.15;;;3.60;1.00;;;;;;5110381;28;20233;-81
2023/02/26 13:24:56;;;;;;;1.95;1.50;;;3.50;1.00;;;;;;5109117;28;20190;-81